Time;durP1;ratioP1;P1;durP2;ratioP2;P2;SDS_P1;SDS_P2;PMS_P1;PMS_P2;Temp;Humidity;BMP_temperature;BMP_pressure;BME280_temperature;BME280_humidity;BME280_pressure;Samples;Min_cycle;Max_cycle;Signal;HPM_P1;HPM_P2
2021/04/12 00:01:57;;;;;;;217.95;77.50;;;;;;;-144.99;95.67;52358.41;5010633;28;20212;-78
2021/04/12 00:04:31;;;;;;;221.65;78.88;;;;;;;-144.99;95.67;52391.03;5011402;28;20209;-76
2021/04/12 00:07:03;;;;;;;223.38;79.40;;;;;;;-144.99;95.81;52382.88;5010297;28;20236;-78
2021/04/12 00:09:34;;;;;;;223.50;78.70;;;;;;;-144.99;95.91;52374.72;5009339;28;20232;-73
2021/04/12 00:12:06;;;;;;;219.25;77.45;;;;;;;-144.99;96.26;52393.06;5009869;28;20216;-74
2021/04/12 00:14:39;;;;;;;217.18;77.65;;;;;;;-144.99;96.23;52403.25;5009655;28;20595;-75
2021/04/12 00:17:12;;;;;;;212.73;75.35;;;;;;;-144.99;96.45;52360.44;5008493;28;20229;-73
2021/04/12 00:19:45;;;;;;;228.70;80.40;;;;;;;-144.99;96.77;52362.50;5003166;28;20193;-74
2021/04/12 00:22:14;;;;;;;233.07;81.90;;;;;;;-144.99;97.04;52399.19;5008691;28;20247;-76
2021/04/12 00:24:48;;;;;;;221.40;77.60;;;;;;;-144.99;97.20;52366.56;5009561;28;20209;-74
2021/04/12 00:27:20;;;;;;;221.63;78.50;;;;;;;-144.99;97.34;52366.56;5009260;28;20248;-73
2021/04/12 00:29:51;;;;;;;232.57;82.70;;;;;;;-144.99;97.50;52382.88;5009074;28;20220;-73
2021/04/12 00:32:25;;;;;;;231.00;81.63;;;;;;;-144.99;97.64;52384.91;5009580;28;20209;-77
2021/04/12 00:34:59;;;;;;;233.15;81.43;;;;;;;-144.99;97.91;52358.41;5009554;28;20205;-76
2021/04/12 00:37:31;;;;;;;233.30;83.70;;;;;;;-144.99;98.04;52435.88;5009939;28;20785;-80
2021/04/12 00:40:08;;;;;;;230.98;81.40;;;;;;;-144.99;98.12;52325.81;5010139;28;20632;-78
2021/04/12 00:43:06;;;;;;;223.10;77.55;;;;;;;-144.99;98.05;52376.75;5010465;28;20197;-77
2021/04/12 00:45:40;;;;;;;228.23;80.00;;;;;;;-144.99;98.30;52364.53;4992512;28;20225;-79
2021/04/12 00:48:31;;;;;;;168.00;59.20;;;;;;;-144.99;98.40;52386.94;5008483;28;20248;-78
2021/04/12 00:51:12;;;;;;;179.70;63.45;;;;;;;-144.99;98.30;52403.25;5013797;28;20385;-78
2021/04/12 00:53:48;;;;;;;47.88;19.17;;;;;;;-144.99;98.46;52403.25;5013192;28;20220;-77
2021/04/12 00:56:19;;;;;;;116.88;43.17;;;;;;;-144.99;98.57;52393.06;5013882;28;20616;-75
2021/04/12 00:58:55;;;;;;;191.45;66.70;;;;;;;-144.99;98.55;52413.44;5013166;28;20225;-79
2021/04/12 01:01:40;;;;;;;212.82;73.75;;;;;;;-144.99;98.62;52399.19;5013810;28;20223;-77
2021/04/12 01:04:24;;;;;;;224.13;76.88;;;;;;;-144.99;98.67;52366.56;5013932;28;20212;-76
2021/04/12 01:07:22;;;;;;;228.02;79.63;;;;;;;-144.99;98.89;52382.88;5012799;28;20235;-76
2021/04/12 01:10:26;;;;;;;215.20;75.55;;;;;;;-144.99;99.11;52370.63;5012835;28;20203;-79
2021/04/12 01:13:35;;;;;;;223.43;78.13;;;;;;;-144.99;98.76;52376.75;5000206;28;20689;-76
2021/04/12 01:16:20;;;;;;;226.15;79.05;;;;;;;-144.99;98.87;52336.00;5013267;28;20208;-79
2021/04/12 01:19:06;;;;;;;218.10;76.45;;;;;;;-144.99;99.39;52370.63;5013489;28;20844;-76
2021/04/12 01:22:12;;;;;;;225.50;78.72;;;;;;;-144.99;99.74;52358.41;5007781;28;20663;-80
2021/04/12 01:25:03;;;;;;;224.02;78.47;;;;;;;-144.99;100.00;52399.19;5008903;28;20200;-81
2021/04/12 01:28:14;;;;;;;211.98;73.85;;;;;;;-144.99;100.00;52423.63;5012687;28;20254;-76
2021/04/12 01:31:17;;;;;;;226.95;78.97;;;;;;;-144.99;100.00;52399.19;4984561;28;20243;-82
2021/04/12 01:34:12;;;;;;;217.88;76.38;;;;;;;-144.99;100.00;52378.78;5013718;28;20204;-80
2021/04/12 01:36:53;;;;;;;215.60;75.35;;;;;;;-144.99;100.00;52386.94;5014467;28;20204;-78
2021/04/12 01:39:56;;;;;;;216.35;74.10;;;;;;;-144.99;100.00;52380.84;5015239;28;20224;-79
2021/04/12 01:42:34;;;;;;;216.95;75.78;;;;;;;-144.99;100.00;52386.94;5023128;28;20201;-77
2021/04/12 01:45:13;;;;;;;213.85;74.85;;;;;;;-144.99;100.00;52403.25;5029370;28;20228;-79
2021/04/12 01:47:54;;;;;;;215.80;76.05;;;;;;;-144.99;100.00;52366.56;5023120;28;20239;-76
2021/04/12 01:50:58;;;;;;;216.55;76.70;;;;;;;-144.99;100.00;52342.09;5023786;28;20200;-77
2021/04/12 01:53:35;;;;;;;216.52;76.00;;;;;;;-144.99;100.00;52382.88;5008228;28;20196;-77
2021/04/12 01:56:38;;;;;;;215.57;75.45;;;;;;;-144.99;100.00;52384.91;5011023;28;20237;-76
2021/04/12 01:59:19;;;;;;;218.77;76.82;;;;;;;-144.99;100.00;52393.06;5005889;28;20547;-77
2021/04/12 02:02:05;;;;;;;216.38;76.13;;;;;;;-144.99;100.00;52391.03;5000450;28;20291;-76
2021/04/12 02:04:43;;;;;;;218.77;77.03;;;;;;;-144.99;100.00;52378.78;5012022;28;20216;-76
2021/04/12 02:07:19;;;;;;;216.75;75.65;;;;;;;-144.99;100.00;52362.50;5011587;28;20259;-78
2021/04/12 02:10:00;;;;;;;217.50;76.97;;;;;;;-144.99;100.00;52399.19;5019761;28;20211;-76
2021/04/12 02:12:51;;;;;;;216.45;74.88;;;;;;;-144.99;100.00;52382.88;5011912;28;20682;-75
2021/04/12 02:15:25;;;;;;;217.63;77.22;;;;;;;-144.99;100.00;52427.72;5011604;28;20221;-75
2021/04/12 02:18:12;;;;;;;217.75;77.03;;;;;;;-144.99;100.00;52370.63;5015554;28;20231;-80
2021/04/12 02:20:48;;;;;;;216.55;75.80;;;;;;;-144.99;100.00;52372.69;5019624;28;20218;-76
2021/04/12 02:23:31;;;;;;;218.70;77.75;;;;;;;-144.99;100.00;52378.78;5023060;28;20201;-78
2021/04/12 02:26:16;;;;;;;219.52;77.53;;;;;;;-144.99;100.00;52427.72;5020093;28;20221;-76
2021/04/12 02:28:57;;;;;;;218.10;76.28;;;;;;;-144.99;100.00;52399.19;5020600;28;20597;-75
2021/04/12 02:31:39;;;;;;;216.02;74.85;;;;;;;-144.99;100.00;52366.56;5021965;28;20209;-77
2021/04/12 02:34:10;;;;;;;217.65;76.03;;;;;;;-144.99;100.00;52388.97;5023826;28;20209;-78
2021/04/12 02:36:52;;;;;;;218.75;76.53;;;;;;;-144.99;100.00;52366.56;5023348;28;20207;-73
2021/04/12 02:39:38;;;;;;;209.73;72.18;;;;;;;-144.99;100.00;52354.34;5017234;28;20208;-76
2021/04/12 02:42:17;;;;;;;216.30;75.95;;;;;;;-144.99;100.00;52395.09;5014448;28;20204;-79
2021/04/12 02:44:54;;;;;;;214.85;74.95;;;;;;;-144.99;100.00;52352.28;5014298;28;20343;-76
2021/04/12 02:47:52;;;;;;;216.05;74.60;;;;;;;-144.99;100.00;52378.78;5013639;28;20306;-76
2021/04/12 02:50:29;;;;;;;214.48;74.90;;;;;;;-144.99;100.00;52354.34;5001676;28;20209;-77
2021/04/12 02:53:07;;;;;;;216.50;75.38;;;;;;;-144.99;100.00;52391.03;5010192;28;20213;-78
2021/04/12 02:55:52;;;;;;;216.80;75.22;;;;;;;-144.99;100.00;52415.47;5013781;28;20662;-76
2021/04/12 02:58:43;;;;;;;216.95;74.63;;;;;;;-144.99;100.00;52374.72;5000133;28;20283;-75
2021/04/12 03:01:31;;;;;;;213.55;73.75;;;;;;;-144.99;100.00;52403.25;5014266;28;20208;-75
2021/04/12 03:04:09;;;;;;;216.75;74.97;;;;;;;-144.99;100.00;52378.78;5013714;28;20205;-75
2021/04/12 03:07:01;;;;;;;217.52;76.50;;;;;;;-144.99;100.00;52350.25;5012688;28;20375;-75
2021/04/12 03:09:44;;;;;;;218.57;76.28;;;;;;;-144.99;100.00;52403.25;5011816;28;20760;-75
2021/04/12 03:12:44;;;;;;;218.90;76.65;;;;;;;-144.99;100.00;52368.59;5012222;28;20201;-76
2021/04/12 03:15:47;;;;;;;215.77;74.47;;;;;;;-144.99;100.00;52378.78;5007040;28;20370;-79
2021/04/12 03:18:45;;;;;;;218.23;75.65;;;;;;;-144.99;100.00;52378.78;4975355;28;20325;-76
2021/04/12 03:21:53;;;;;;;218.35;75.75;;;;;;;-144.99;100.00;52338.03;4993935;28;20205;-76
2021/04/12 03:24:24;;;;;;;217.27;75.65;;;;;;;-144.99;100.00;52407.31;4964681;28;20282;-77
2021/04/12 03:27:11;;;;;;;218.93;75.45;;;;;;;-144.99;100.00;52378.78;5011228;28;20224;-77
2021/04/12 03:29:45;;;;;;;221.15;77.43;;;;;;;-144.99;100.00;52460.31;5000962;28;20271;-77
2021/04/12 03:32:31;;;;;;;220.45;76.57;;;;;;;-144.99;100.00;52366.56;5011912;28;20270;-77
2021/04/12 03:35:05;;;;;;;216.35;74.72;;;;;;;-144.99;100.00;52382.88;5011821;28;20220;-76
2021/04/12 03:37:37;;;;;;;221.68;76.80;;;;;;;-144.99;100.00;52399.19;5011010;28;20277;-76
2021/04/12 03:40:17;;;;;;;219.45;76.22;;;;;;;-144.99;100.00;52388.97;5011057;28;20213;-75
2021/04/12 03:43:23;;;;;;;217.32;74.15;;;;;;;-144.99;100.00;52378.78;5012120;28;20208;-73
2021/04/12 03:46:25;;;;;;;220.25;75.70;;;;;;;-144.99;100.00;52397.13;5002176;28;20228;-74
2021/04/12 03:49:32;;;;;;;219.77;76.05;;;;;;;-144.99;100.00;52403.25;5012258;28;20311;-75
2021/04/12 03:52:43;;;;;;;223.13;77.65;;;;;;;-144.99;100.00;52388.97;5007482;28;20217;-75
2021/04/12 03:55:20;;;;;;;221.73;77.18;;;;;;;-144.99;100.00;52395.09;5009511;28;20197;-75
2021/04/12 03:58:09;;;;;;;224.00;77.85;;;;;;;-144.99;100.00;52350.25;5010040;28;20240;-75
2021/04/12 04:01:12;;;;;;;223.07;77.13;;;;;;;-144.99;100.00;52401.22;5009779;28;20228;-73
2021/04/12 04:03:48;;;;;;;214.38;73.95;;;;;;;-144.99;100.00;52386.94;5010636;28;20209;-74
2021/04/12 04:06:45;;;;;;;220.40;76.53;;;;;;;-144.99;100.00;52382.88;5010145;28;20503;-74
2021/04/12 04:09:24;;;;;;;218.45;74.32;;;;;;;-144.99;100.00;52391.03;5009619;28;20233;-75
2021/04/12 04:12:12;;;;;;;220.38;75.22;;;;;;;-144.99;100.00;52378.78;5010193;28;20205;-74
2021/04/12 04:15:05;;;;;;;218.43;75.85;;;;;;;-144.99;100.00;52411.41;5010415;28;20224;-74
2021/04/12 04:18:04;;;;;;;222.57;76.38;;;;;;;-144.99;100.00;52386.94;5010275;28;20702;-74
2021/04/12 04:20:51;;;;;;;223.40;77.05;;;;;;;-144.99;100.00;52401.22;4994689;28;20562;-75
2021/04/12 04:23:33;;;;;;;224.23;77.45;;;;;;;-144.99;100.00;52350.25;5007049;28;20295;-72
2021/04/12 04:26:25;;;;;;;224.80;78.15;;;;;;;-144.99;100.00;52395.09;5013770;28;20684;-75
2021/04/12 04:29:18;;;;;;;220.15;75.35;;;;;;;-144.99;100.00;52342.09;5014270;28;20243;-74
2021/04/12 04:32:14;;;;;;;221.63;76.95;;;;;;;-144.99;100.00;52417.53;5014339;28;20212;-73
2021/04/12 04:35:03;;;;;;;219.80;75.93;;;;;;;-144.99;100.00;52378.78;5014981;28;20263;-74
2021/04/12 04:37:49;;;;;;;222.05;77.05;;;;;;;-144.99;100.00;52395.09;5002395;28;20251;-76
2021/04/12 04:40:31;;;;;;;222.38;76.20;;;;;;;-144.99;100.00;52382.88;5014220;28;20212;-75
2021/04/12 04:43:14;;;;;;;222.50;76.38;;;;;;;-144.99;100.00;52358.41;5007568;28;20267;-75
2021/04/12 04:45:56;;;;;;;222.57;76.47;;;;;;;-144.99;100.00;52388.97;5002588;28;20634;-76
2021/04/12 04:48:53;;;;;;;221.95;76.05;;;;;;;-144.99;100.00;52399.19;5013417;28;20722;-75
2021/04/12 04:51:38;;;;;;;220.55;75.97;;;;;;;-144.99;100.00;52399.19;5012649;28;20208;-74
2021/04/12 04:54:40;;;;;;;220.07;74.63;;;;;;;-144.99;99.97;52386.94;5013759;28;20201;-79
2021/04/12 04:57:15;;;;;;;224.57;77.57;;;;;;;-144.99;99.83;52386.94;5013064;28;20295;-78
2021/04/12 04:59:58;;;;;;;223.85;77.30;;;;;;;-144.99;99.89;52329.88;5013807;28;20208;-77
2021/04/12 05:02:39;;;;;;;221.77;76.70;;;;;;;-144.99;99.72;52407.31;5014951;28;20372;-79
2021/04/12 05:05:29;;;;;;;218.43;74.82;;;;;;;-144.99;99.62;52419.56;5014797;28;20571;-78
2021/04/12 05:08:56;;;;;;;223.38;77.88;;;;;;;-144.99;99.62;52382.88;5015227;28;20237;-72
2021/04/12 05:11:36;;;;;;;222.68;76.78;;;;;;;-144.99;99.48;52376.75;5012275;28;20211;-73
2021/04/12 05:14:20;;;;;;;219.45;75.80;;;;;;;-144.99;99.45;52413.44;5012365;28;20209;-73
2021/04/12 05:17:02;;;;;;;221.10;75.97;;;;;;;-144.99;99.46;52378.78;5011947;28;20232;-74
2021/04/12 05:19:46;;;;;;;219.40;77.03;;;;;;;-144.99;99.95;52391.03;5010553;28;20769;-72
2021/04/12 05:22:48;;;;;;;222.52;77.63;;;;;;;-144.99;99.76;52374.72;5012417;28;20209;-73
2021/04/12 05:25:53;;;;;;;222.95;78.28;;;;;;;-144.99;99.34;52370.63;5005348;28;20222;-74
2021/04/12 05:28:38;;;;;;;217.48;75.63;;;;;;;-144.99;98.59;52378.78;5011641;28;20233;-73
2021/04/12 05:31:31;;;;;;;151.77;53.15;;;;;;;-144.99;98.21;52391.03;5011630;28;20201;-73
2021/04/12 05:34:23;;;;;;;155.35;55.58;;;;;;;-144.99;97.85;52333.94;5012560;28;20212;-79
2021/04/12 05:37:06;;;;;;;72.80;26.52;;;;;;;-144.99;97.64;52376.75;5012262;28;20209;-74
2021/04/12 05:40:02;;;;;;;218.88;74.00;;;;;;;-144.99;97.43;52395.09;5012751;28;20205;-76
2021/04/12 05:42:51;;;;;;;228.70;79.50;;;;;;;-144.99;97.29;52382.88;5013009;28;20210;-75
2021/04/12 05:45:43;;;;;;;217.80;76.38;;;;;;;-144.99;97.32;52374.72;5012587;28;20209;-75
2021/04/12 05:48:33;;;;;;;220.48;77.35;;;;;;;-144.99;97.10;52391.03;5013094;28;20741;-76
2021/04/12 05:51:28;;;;;;;217.38;75.28;;;;;;;-144.99;97.03;52370.63;5012577;28;20212;-73
2021/04/12 05:54:14;;;;;;;220.25;77.85;;;;;;;-144.99;96.81;52386.94;5009718;28;20213;-77
2021/04/12 05:57:11;;;;;;;216.43;76.22;;;;;;;-144.99;96.56;52333.94;5011448;28;20675;-75
2021/04/12 06:00:02;;;;;;;222.60;77.88;;;;;;;-144.99;96.52;52388.97;5012889;28;20682;-74
2021/04/12 06:02:44;;;;;;;219.55;77.40;;;;;;;-144.99;96.56;52360.44;5013057;28;20220;-75
2021/04/12 06:05:22;;;;;;;215.88;75.63;;;;;;;-144.99;96.26;52360.44;5012685;28;20208;-76
2021/04/12 06:08:02;;;;;;;218.98;76.90;;;;;;;-144.99;96.32;52380.84;5013239;28;20228;-74
2021/04/12 06:10:45;;;;;;;219.55;76.97;;;;;;;-144.99;96.29;52391.03;5011267;28;20208;-73
2021/04/12 06:13:37;;;;;;;218.63;79.07;;;;;;;-144.99;96.33;52366.56;5011662;28;20219;-75
2021/04/12 06:16:18;;;;;;;219.68;77.28;;;;;;;-144.99;96.03;52386.94;5009420;28;20205;-75
2021/04/12 06:19:28;;;;;;;218.52;77.28;;;;;;;-144.99;95.38;52368.59;5012343;28;20225;-75
2021/04/12 06:22:12;;;;;;;218.48;77.18;;;;;;;-144.99;94.45;52378.78;4971866;28;20225;-75
2021/04/12 06:25:03;;;;;;;218.48;77.13;;;;;;;-144.99;94.18;52374.72;5007011;28;20636;-76
2021/04/12 06:28:06;;;;;;;219.57;76.55;;;;;;;-144.99;93.47;52376.75;5011078;28;20228;-75
2021/04/12 06:31:08;;;;;;;223.02;79.25;;;;;;;-144.99;92.63;52378.78;5011077;28;20239;-73
2021/04/12 06:34:00;;;;;;;218.10;77.57;;;;;;;-144.99;92.50;52346.19;5011465;28;20243;-73
2021/04/12 06:36:47;;;;;;;227.40;80.07;;;;;;;-144.99;92.12;52366.56;5011076;28;20659;-75
2021/04/12 06:39:35;;;;;;;163.80;57.88;;;;;;;-144.99;91.35;52362.50;5012224;28;20197;-74
2021/04/12 06:42:36;;;;;;;155.52;55.05;;;;;;;-144.99;90.77;52354.34;5010468;28;20205;-75
2021/04/12 06:45:27;;;;;;;212.52;74.40;;;;;;;-144.99;90.51;52352.28;5011060;28;20216;-74
2021/04/12 06:48:47;;;;;;;221.70;78.72;;;;;;;-144.99;90.66;52403.25;5010753;28;20236;-74
2021/04/12 06:52:00;;;;;;;222.60;78.95;;;;;;;-144.99;89.34;52325.81;5010798;28;20209;-74
2021/04/12 06:55:09;;;;;;;211.63;75.82;;;;;;;-144.99;89.43;52329.88;4976946;28;20206;-74
2021/04/12 06:58:13;;;;;;;217.05;78.28;;;;;;;-144.99;89.64;52386.94;5015986;28;20240;-74
2021/04/12 07:01:13;;;;;;;218.48;78.57;;;;;;;-144.99;89.65;52354.34;5025700;28;20228;-75
2021/04/12 07:04:19;;;;;;;214.82;76.93;;;;;;;-144.99;89.02;52356.38;5023851;28;20207;-75
2021/04/12 07:07:25;;;;;;;222.13;78.38;;;;;;;-144.99;88.66;52362.50;5023868;28;20254;-74
2021/04/12 07:10:16;;;;;;;221.18;78.72;;;;;;;-144.99;87.72;52342.09;5024246;28;20239;-75
2021/04/12 07:13:00;;;;;;;224.35;79.07;;;;;;;-144.99;86.87;52333.94;5020494;28;20299;-76
2021/04/12 07:16:10;;;;;;;229.02;80.40;;;;;;;-144.99;86.07;52370.63;5013897;28;20209;-74
2021/04/12 07:19:13;;;;;;;224.27;79.93;;;;;;;-144.99;85.61;52372.69;5008652;28;20247;-74
2021/04/12 07:22:12;;;;;;;176.57;62.10;;;;;;;-144.99;85.66;52331.91;5010826;28;20212;-74
2021/04/12 07:25:21;;;;;;;219.88;79.38;;;;;;;-144.99;84.48;52364.53;5008075;28;20216;-75
2021/04/12 07:28:50;;;;;;;233.82;81.80;;;;;;;-144.99;83.68;52378.78;5011728;28;20232;-75
2021/04/12 07:31:47;;;;;;;104.75;38.83;;;;;;;-144.99;83.74;52303.38;5012403;28;20208;-75
2021/04/12 07:34:49;;;;;;;42.85;16.05;;;;;;;-144.99;82.88;52305.41;5012497;28;20213;-77
2021/04/12 07:37:39;;;;;;;204.50;75.28;;;;;;;-144.99;82.39;52352.28;5011260;28;20315;-76
2021/04/12 07:40:54;;;;;;;217.27;77.75;;;;;;;-144.99;82.60;52325.81;5012465;28;20671;-74
2021/04/12 07:43:57;;;;;;;218.05;78.72;;;;;;;-144.99;82.08;52329.88;5007199;28;20205;-78
2021/04/12 07:47:24;;;;;;;203.52;76.18;;;;;;;-144.99;81.75;52342.09;5011020;28;20304;-75
2021/04/12 07:50:30;;;;;;;201.45;73.95;;;;;;;-144.99;81.47;52358.41;5011170;28;20209;-73
2021/04/12 07:53:35;;;;;;;99.18;35.90;;;;;;;-144.99;79.65;52350.25;4978999;28;20209;-75
2021/04/12 07:56:40;;;;;;;153.70;57.60;;;;;;;-144.99;78.80;52372.69;4963504;28;20730;-72
2021/04/12 08:00:00;;;;;;;82.70;30.17;;;;;;;-144.99;78.17;52325.81;5013663;28;20197;-76
2021/04/12 08:02:55;;;;;;;167.60;61.72;;;;;;;-144.99;78.79;52319.69;5012759;28;20216;-73
2021/04/12 08:05:47;;;;;;;184.13;68.00;;;;;;;-144.99;78.59;52293.19;5010103;28;20215;-76
2021/04/12 08:08:47;;;;;;;217.48;77.00;;;;;;;-144.99;78.89;52272.81;4996477;28;20225;-76
2021/04/12 08:11:43;;;;;;;218.32;78.13;;;;;;;-144.99;77.51;52338.03;5013158;28;20647;-74
2021/04/12 08:14:55;;;;;;;223.40;79.22;;;;;;;-144.99;75.11;52329.88;5009567;28;20254;-74
2021/04/12 08:17:54;;;;;;;159.52;56.90;;;;;;;-144.99;75.62;52305.41;5013039;28;20213;-76
2021/04/12 08:21:06;;;;;;;115.95;42.45;;;;;;;-144.99;73.18;52350.25;5009586;28;20688;-75
2021/04/12 08:24:19;;;;;;;195.07;72.20;;;;;;;-144.99;70.55;52333.94;4982896;28;20683;-74
2021/04/12 08:27:43;;;;;;;205.65;74.90;;;;;;;-144.99;69.52;52297.25;5014897;28;20251;-72
2021/04/12 08:30:51;;;;;;;174.10;64.05;;;;;;;-144.99;69.38;52285.03;5014461;28;20609;-74
2021/04/12 08:34:06;;;;;;;212.95;77.20;;;;;;;-144.99;66.96;52329.88;5014643;28;20722;-75
2021/04/12 08:37:05;;;;;;;211.00;78.80;;;;;;;-144.99;67.01;52317.66;5009580;28;20228;-74
2021/04/12 08:40:23;;;;;;;180.00;64.35;;;;;;;-144.99;67.63;52329.88;5014261;28;20213;-74
2021/04/12 08:43:16;;;;;;;195.13;71.93;;;;;;;-144.99;64.43;52317.66;5007310;28;20208;-74
2021/04/12 08:46:15;;;;;;;208.68;75.43;;;;;;;-144.99;64.01;52329.88;5014292;28;20213;-76
2021/04/12 08:48:51;;;;;;;203.20;75.07;;;;;;;-144.99;62.78;52329.88;5011524;28;20236;-73
2021/04/12 08:51:50;;;;;;;126.53;46.72;;;;;;;-144.99;61.66;52340.06;5013703;28;20646;-73
2021/04/12 08:54:48;;;;;;;162.13;58.37;;;;;;;-144.99;63.02;52309.50;5008502;28;20586;-73
2021/04/12 08:57:50;;;;;;;152.07;54.17;;;;;;;-144.99;63.14;52303.38;5006141;28;20656;-76
2021/04/12 09:00:42;;;;;;;212.43;75.20;;;;;;;-144.99;62.44;52378.78;5005900;28;20683;-76
2021/04/12 09:03:32;;;;;;;123.23;44.40;;;;;;;-144.99;61.60;52307.47;5009810;28;20754;-75
2021/04/12 09:06:21;;;;;;;82.03;31.27;;;;;;;-144.99;62.63;52325.81;5036330;22;20848;-74
2021/04/12 09:09:11;;;;;;;144.03;52.13;;;;;;;-144.99;63.60;52338.03;5014574;28;20634;-76
2021/04/12 09:12:22;;;;;;;165.77;60.90;;;;;;;-144.99;63.78;52311.53;5014052;28;20620;-75
2021/04/12 09:15:40;;;;;;;126.43;46.90;;;;;;;-144.99;61.67;52321.72;4986869;28;20663;-75
2021/04/12 09:18:57;;;;;;;212.30;77.47;;;;;;;-144.99;62.49;52319.69;4993138;28;20635;-74
2021/04/12 09:22:06;;;;;;;222.95;80.57;;;;;;;-144.99;62.31;52301.34;5019698;28;20619;-76
2021/04/12 09:24:47;;;;;;;217.50;79.22;;;;;;;-144.99;62.23;52305.41;5013165;28;20715;-75
2021/04/12 09:27:40;;;;;;;150.47;53.77;;;;;;;-144.99;64.60;52303.38;5014251;28;20681;-77
2021/04/12 09:30:22;;;;;;;177.10;65.07;;;;;;;-144.99;66.18;52358.41;5013411;28;20703;-75
2021/04/12 09:33:12;;;;;;;216.02;77.85;;;;;;;-144.99;66.68;52350.25;5013937;28;20620;-76
2021/04/12 09:36:00;;;;;;;222.52;81.75;;;;;;;-144.99;67.80;52338.03;5013883;28;20233;-75
2021/04/12 09:39:00;;;;;;;218.02;79.72;;;;;;;-144.99;67.89;52309.50;5013444;28;20209;-76
2021/04/12 09:42:05;;;;;;;214.32;79.20;;;;;;;-144.99;67.27;52299.31;5017625;28;20480;-74
2021/04/12 09:45:14;;;;;;;211.95;77.45;;;;;;;-144.99;65.95;52321.72;5013161;28;20225;-76
2021/04/12 09:48:19;;;;;;;220.45;79.53;;;;;;;-144.99;64.03;52321.72;5011445;28;20212;-76
2021/04/12 09:51:23;;;;;;;224.50;80.50;;;;;;;-144.99;63.67;52211.66;5012755;28;20204;-75
2021/04/12 09:54:24;;;;;;;125.83;46.67;;;;;;;-144.99;59.67;52280.97;5023881;28;20263;-76
2021/04/12 09:57:33;;;;;;;219.60;79.27;;;;;;;-144.99;57.91;52256.50;5012783;28;20713;-76
2021/04/12 10:00:26;;;;;;;151.00;55.97;;;;;;;-144.99;56.85;52297.25;5013906;28;20646;-76
2021/04/12 10:03:37;;;;;;;37.70;15.53;;;;;;;-144.99;58.11;52338.03;5014983;28;20624;-77
2021/04/12 10:07:00;;;;;;;26.27;11.30;;;;;;;-144.99;61.52;52338.03;5007721;28;20675;-76
2021/04/12 10:09:56;;;;;;;29.77;12.93;;;;;;;-144.99;64.05;52346.19;4952411;29;20685;-76
2021/04/12 10:12:39;;;;;;;155.90;57.07;;;;;;;-144.99;66.61;52372.69;5004006;28;20636;-75
2021/04/12 10:15:13;;;;;;;50.33;19.37;;;;;;;-144.99;68.66;52325.81;5000486;28;20656;-76
2021/04/12 10:17:45;;;;;;;91.10;34.30;;;;;;;-144.99;70.77;52386.94;5015336;28;20994;-76
2021/04/12 10:20:16;;;;;;;133.50;49.03;;;;;;;-144.99;73.24;52342.09;5026360;28;20634;-73
2021/04/12 10:22:52;;;;;;;150.90;54.30;;;;;;;-144.99;74.67;52386.94;5021604;28;20719;-76
2021/04/12 10:25:27;;;;;;;150.23;55.05;;;;;;;-144.99;76.99;52307.47;5009045;28;20272;-74
2021/04/12 10:28:05;;;;;;;134.55;47.95;;;;;;;-144.99;78.03;52342.09;5015373;28;20706;-74
2021/04/12 10:30:38;;;;;;;206.40;76.50;;;;;;;-144.99;78.61;52354.34;5010340;28;20197;-74
2021/04/12 10:33:13;;;;;;;204.45;76.22;;;;;;;-144.99;80.12;52354.34;5014260;28;20228;-74
2021/04/12 10:35:45;;;;;;;216.45;79.40;;;;;;;-144.99;80.11;52370.63;5026342;28;20263;-73
2021/04/12 10:38:20;;;;;;;23.45;11.23;;;;;;;-144.99;79.95;52342.09;5012063;28;20337;-72
2021/04/12 10:40:50;;;;;;;43.67;17.15;;;;;;;-144.99;80.45;52338.03;5020265;28;20391;-75
2021/04/12 10:43:23;;;;;;;22.40;10.15;;;;;;;-144.99;80.22;52329.88;5018292;28;20204;-75
2021/04/12 10:45:57;;;;;;;24.05;11.35;;;;;;;-144.99;80.05;52268.72;5026010;28;20690;-75
2021/04/12 10:48:28;;;;;;;81.47;29.60;;;;;;;-144.99;75.95;52327.84;5018226;28;20203;-74
2021/04/12 10:51:17;;;;;;;222.10;78.68;;;;;;;-144.99;75.28;52333.94;5015302;28;20282;-75
2021/04/12 10:54:17;;;;;;;225.60;81.45;;;;;;;-144.99;72.64;52313.56;5017978;28;20343;-74
2021/04/12 10:56:48;;;;;;;226.13;81.90;;;;;;;-144.99;73.91;52336.00;5008061;28;20209;-76
2021/04/12 10:59:49;;;;;;;208.40;77.38;;;;;;;-144.99;73.70;52346.19;5011739;28;20215;-74
2021/04/12 11:02:22;;;;;;;211.73;78.28;;;;;;;-144.99;72.77;52374.72;4998361;28;20231;-74
2021/04/12 11:05:02;;;;;;;212.02;78.30;;;;;;;-144.99;73.23;52342.09;5010630;28;20244;-74
2021/04/12 11:07:45;;;;;;;216.63;78.45;;;;;;;-144.99;73.36;52342.09;5009892;28;20224;-74
2021/04/12 11:10:21;;;;;;;210.55;75.78;;;;;;;-144.99;74.17;52193.31;5009938;28;20320;-74
2021/04/12 11:12:56;;;;;;;212.23;77.85;;;;;;;-144.99;70.80;52168.84;5010454;28;20299;-75
2021/04/12 11:15:35;;;;;;;211.07;77.35;;;;;;;-144.99;66.10;52134.22;5011437;28;20275;-76
2021/04/12 11:18:05;;;;;;;205.93;77.03;;;;;;;-144.99;64.14;52117.91;5006010;28;20205;-74
2021/04/12 11:20:41;;;;;;;141.17;50.63;;;;;;;-144.99;60.70;52097.53;5005101;28;20591;-73
2021/04/12 11:23:14;;;;;;;50.67;19.70;;;;;;;-144.99;55.89;52073.06;5010538;28;20620;-75
2021/04/12 11:25:48;;;;;;;17.83;8.70;;;;;;;-144.99;49.14;52089.38;5015682;28;20666;-74
2021/04/12 11:28:32;;;;;;;94.17;35.63;;;;;;;-144.99;48.83;52109.75;5009909;28;20642;-76
2021/04/12 11:31:09;;;;;;;7.40;5.33;;;;;;;-144.99;47.80;52077.16;5008834;28;20734;-75
2021/04/12 11:33:53;;;;;;;7.23;6.13;;;;;;;-144.99;46.41;52089.38;5013980;28;20656;-73
2021/04/12 11:36:29;;;;;;;7.87;7.07;;;;;;;-144.99;46.24;52117.91;5010353;28;20652;-74
2021/04/12 11:39:08;;;;;;;7.23;6.23;;;;;;;-144.99;46.98;52215.75;5006937;28;20630;-75
2021/04/12 11:41:42;;;;;;;7.77;6.83;;;;;;;-144.99;50.03;52285.03;5020152;28;21239;-75
2021/04/12 11:44:12;;;;;;;10.03;9.17;;;;;;;-144.99;49.80;52311.53;5016143;28;20626;-76
2021/04/12 11:47:05;;;;;;;12.17;11.13;;;;;;;-144.99;49.94;52317.66;5008927;28;20736;-74
2021/04/12 11:49:39;;;;;;;6.97;6.27;;;;;;;-144.99;51.61;52203.50;5010322;28;20750;-74
2021/04/12 11:52:10;;;;;;;9.80;9.03;;;;;;;-144.99;51.91;52256.50;5011923;28;20635;-75
2021/04/12 11:54:41;;;;;;;13.13;11.97;;;;;;;-144.99;51.99;52346.19;5019062;28;20798;-73
2021/04/12 11:57:24;;;;;;;18.30;13.43;;;;;;;-144.99;51.23;52338.03;5012441;28;20613;-75
2021/04/12 11:59:56;;;;;;;8.30;6.03;;;;;;;-144.99;52.59;52297.25;5022789;28;20615;-74
2021/04/12 12:02:37;;;;;;;7.50;6.80;;;;;;;-144.99;51.21;52260.56;5013208;28;20636;-74
2021/04/12 12:05:13;;;;;;;5.73;4.47;;;;;;;-144.99;49.26;52152.56;5015104;28;20664;-76
2021/04/12 12:07:47;;;;;;;29.20;13.00;;;;;;;-144.99;49.38;52126.06;5013110;28;20750;-75
2021/04/12 12:10:24;;;;;;;7.97;4.97;;;;;;;-144.99;47.75;52136.25;5009591;28;20682;-76
2021/04/12 12:12:58;;;;;;;14.80;7.90;;;;;;;-144.99;47.88;52119.94;5009653;28;20642;-76
2021/04/12 12:15:38;;;;;;;17.80;8.30;;;;;;;-144.99;46.28;52117.91;5009321;28;20965;-76
2021/04/12 12:18:12;;;;;;;6.53;4.97;;;;;;;-144.99;46.17;52134.22;5000732;28;20643;-76
2021/04/12 12:20:49;;;;;;;6.07;5.07;;;;;;;-144.99;44.44;52142.38;5010330;28;20609;-74
2021/04/12 12:23:38;;;;;;;6.87;5.37;;;;;;;-144.99;45.23;52113.84;5008700;28;20626;-74
2021/04/12 12:26:10;;;;;;;6.93;5.20;;;;;;;-144.99;46.18;52309.50;5009544;28;21075;-74
2021/04/12 12:28:42;;;;;;;7.63;6.73;;;;;;;-144.99;44.90;52309.50;5009005;28;20953;-76
2021/04/12 12:34:10;;;;;;;7.33;6.67;;;;;;;-144.99;48.15;52338.03;5004108;28;20625;-75